Oakdale, LA

6:18 PM CDT on August 27, 2016 (GMT -0500)
Oakdale

Weather History for KACP - October, 2013

Change the Weather History Date:

Tuesday, October 8, 2013

  Actual Average (KPOE) Record (KPOE)
Temperature  
Mean Temperature 61 °F -  
Max Temperature 76 °F 77 °F 91 °F (2010)
Min Temperature 46 °F 58 °F 44 °F (2000)
Degree Days  
Heating Degree Days 4    
Growing Degree Days 11 (Base 50)    
Moisture  
Dew Point 52 °F    
Average Humidity 79    
Maximum Humidity 97    
Minimum Humidity 45    
Precipitation  
Precipitation 0.00 in - - ()
Sea Level Pressure  
Sea Level Pressure 30.06 in    
Wind  
Wind Speed 1 mph (North)    
Max Wind Speed 7 mph    
Max Gust Speed -    
Visibility 10 miles    
Events      
Averages and records for this station are not official NWS values.
T = Trace of Precipitation, MM = Missing Value Source: NWS Daily Summary

Daily Weather History Graph

Daily Weather History Graph

Search for Another Location

Airport or City:

Trip Planner

Search our weather history database for the weather conditions in past years. The results will help you decide how hot, cold, wet, or windy it might be!

Date:

Astronomy

Oct. 08, 2013 Rise Set
Actual Time 7:08 AM CDT 6:47 PM CDT
Civil Twilight 6:44 AM CDT 7:11 PM CDT
Nautical Twilight 6:16 AM CDT 7:39 PM CDT
Astronomical Twilight 5:48 AM CDT 8:07 PM CDT
Moon 10:48 AM CDT (10/8) 9:39 PM CDT (10/8)
Length of Visible Light 12h 26m
Length of Day
11h 38m
Waxing Crescent, 16% of the Moon is Illuminated
Oct 8
Waxing Crescent
Oct 11
First Quarter
Oct 18
Full
Oct 26
Last Quarter
Nov 3
New

Hourly Weather History & Observations

Time (CDT) Temp. Dew Point Humidity Pressure Visibility Wind Dir Wind Speed Gust Speed Precip Events Conditions
12:15 AM 50.9 °F 49.6 °F 95% 30.08 in 10.0 mi Calm Calm - N/A   Clear
12:35 AM 50.4 °F 49.3 °F 96% 30.07 in 10.0 mi Calm Calm - N/A   Clear
12:55 AM 50.2 °F 49.1 °F 96% 30.07 in 10.0 mi Calm Calm - N/A   Clear
1:15 AM 50.2 °F 49.1 °F 96% 30.07 in 10.0 mi Calm Calm - N/A   Clear
1:35 AM 50.0 °F 48.7 °F 95% 30.07 in 10.0 mi Calm Calm - N/A   Clear
1:55 AM 49.6 °F 48.4 °F 95% 30.07 in 10.0 mi Calm Calm - N/A   Clear
2:15 AM 49.5 °F 48.4 °F 96% 30.07 in 10.0 mi Calm Calm - N/A   Clear
2:35 AM 49.5 °F 48.2 °F 95% 30.06 in 10.0 mi Calm Calm - N/A   Clear
2:55 AM 48.9 °F 47.8 °F 96% 30.06 in 10.0 mi Calm Calm - N/A   Clear
3:15 AM 48.7 °F 47.7 °F 96% 30.06 in 10.0 mi Calm Calm - N/A   Clear
3:35 AM 48.6 °F 47.5 °F 96% 30.06 in 10.0 mi Calm Calm - N/A   Clear
3:55 AM 48.2 °F 47.3 °F 97% 30.06 in 10.0 mi Calm Calm - N/A   Clear
4:15 AM 48.2 °F 46.9 °F 95% 30.06 in 10.0 mi Calm Calm - N/A   Clear
4:35 AM 47.7 °F 46.6 °F 96% 30.06 in 10.0 mi Calm Calm - N/A   Clear
4:55 AM 48.2 °F 46.9 °F 95% 30.06 in 10.0 mi Calm Calm - N/A   Clear
5:15 AM 47.8 °F 46.8 °F 96% 30.06 in 10.0 mi Calm Calm - N/A   Clear
5:35 AM 47.5 °F 46.4 °F 96% 30.07 in 10.0 mi Calm Calm - N/A   Clear
5:55 AM 46.9 °F 45.9 °F 96% 30.07 in 10.0 mi Calm Calm - N/A   Clear
6:15 AM 46.8 °F 45.7 °F 96% 30.08 in 10.0 mi Calm Calm - N/A   Clear
6:35 AM 46.8 °F 45.7 °F 96% 30.08 in 10.0 mi Calm Calm - N/A   Clear
6:55 AM 47.8 °F 46.8 °F 96% 30.08 in 10.0 mi Calm Calm - N/A   Clear
7:15 AM 47.5 °F 46.4 °F 96% 30.09 in 10.0 mi Calm Calm - N/A   Clear
7:35 AM 48.2 °F 47.3 °F 97% 30.09 in 10.0 mi Calm Calm - N/A   Clear
7:55 AM 51.3 °F 50.4 °F 97% 30.09 in 10.0 mi Calm Calm - N/A   Clear
8:15 AM 53.8 °F 51.8 °F 93% 30.10 in 10.0 mi Calm Calm - N/A   Clear
8:35 AM 55.9 °F 53.4 °F 91% 30.10 in 10.0 mi Calm Calm - N/A   Clear
8:55 AM 58.6 °F 54.7 °F 87% 30.10 in 10.0 mi NNE 4.6 mph - N/A   Clear
9:15 AM 60.1 °F 55.2 °F 84% 30.11 in 10.0 mi North 3.5 mph - N/A   Clear
9:35 AM 62.6 °F 55.2 °F 77% 30.11 in 10.0 mi ENE 4.6 mph - N/A   Clear
9:55 AM 63.9 °F 54.7 °F 72% 30.11 in 10.0 mi NNE 4.6 mph - N/A   Clear
10:15 AM 65.3 °F 54.0 °F 67% 30.11 in 10.0 mi Calm Calm - N/A   Clear
10:35 AM 67.1 °F 53.4 °F 61% 30.11 in 10.0 mi ENE 4.6 mph - N/A   Clear
10:55 AM 68.4 °F 53.8 °F 60% 30.11 in 10.0 mi NNE 5.8 mph - N/A   Clear
11:15 AM 68.4 °F 53.4 °F 59% 30.10 in 10.0 mi NNE 5.8 mph - N/A   Clear
11:35 AM 70.0 °F 53.4 °F 56% 30.10 in 10.0 mi NNE 5.8 mph - N/A   Clear
11:55 AM 69.6 °F 53.1 °F 56% 30.10 in 10.0 mi ENE 5.8 mph - N/A   Clear
12:15 PM 71.2 °F 53.1 °F 53% 30.09 in 10.0 mi NW 4.6 mph - N/A   Clear
12:35 PM 71.2 °F 53.1 °F 53% 30.09 in 10.0 mi ENE 4.6 mph - N/A   Clear
12:55 PM 72.5 °F 53.4 °F 51% 30.07 in 10.0 mi North 3.5 mph - N/A   Clear
1:15 PM 72.5 °F 54.1 °F 52% 30.07 in 10.0 mi Calm Calm - N/A   Clear
1:35 PM 73.0 °F 52.9 °F 49% 30.06 in 10.0 mi Calm Calm - N/A   Clear
1:55 PM 74.1 °F 54.1 °F 50% 30.05 in 10.0 mi North 4.6 mph - N/A   Clear
2:15 PM 74.7 °F 54.1 °F 49% 30.04 in 10.0 mi Calm Calm - N/A   Clear
2:35 PM 75.0 °F 53.8 °F 47% 30.03 in 10.0 mi Calm Calm - N/A   Clear
2:55 PM 76.1 °F 54.5 °F 47% 30.02 in 10.0 mi NNW 3.5 mph - N/A   Clear
3:15 PM 75.2 °F 54.1 °F 48% 30.02 in 10.0 mi NNE 5.8 mph - N/A   Clear
3:35 PM 75.6 °F 54.0 °F 47% 30.02 in 10.0 mi NNW 6.9 mph - N/A   Clear
3:55 PM 76.1 °F 53.4 °F 45% 30.01 in 10.0 mi North 5.8 mph - N/A   Clear
4:15 PM 76.1 °F 54.1 °F 46% 30.01 in 10.0 mi NW 3.5 mph - N/A   Clear
4:35 PM 75.7 °F 53.4 °F 46% 30.01 in 10.0 mi North 3.5 mph - N/A   Clear
4:55 PM 75.4 °F 53.2 °F 46% 30.01 in 10.0 mi North 4.6 mph - N/A   Clear
5:15 PM 74.8 °F 53.6 °F 47% 30.01 in 10.0 mi Calm Calm - N/A   Clear
5:35 PM 74.3 °F 53.2 °F 48% 30.01 in 10.0 mi NNW 4.6 mph - N/A   Clear
5:55 PM 73.4 °F 54.3 °F 51% 30.01 in 10.0 mi NNW 3.5 mph - N/A   Clear
6:15 PM 70.3 °F 57.2 °F 63% 30.02 in 10.0 mi Calm Calm - N/A   Clear
6:35 PM 65.5 °F 59.2 °F 80% 30.02 in 10.0 mi Calm Calm - N/A   Clear
6:55 PM 62.4 °F 59.5 °F 90% 30.02 in 10.0 mi Calm Calm - N/A   Clear
7:15 PM 60.1 °F 58.3 °F 94% 30.03 in 10.0 mi Calm Calm - N/A   Clear
7:35 PM 59.2 °F 57.2 °F 93% 30.03 in 10.0 mi Calm Calm - N/A   Clear
7:55 PM 57.9 °F 56.3 °F 94% 30.03 in 10.0 mi Calm Calm - N/A   Clear
8:15 PM 57.2 °F 55.6 °F 94% 30.04 in 10.0 mi Calm Calm - N/A   Clear
8:35 PM 56.3 °F 54.7 °F 94% 30.04 in 10.0 mi Calm Calm - N/A   Clear
8:55 PM 55.4 °F 54.1 °F 96% 30.04 in 10.0 mi Calm Calm - N/A   Clear
9:15 PM 54.9 °F 53.6 °F 96% 30.05 in 10.0 mi Calm Calm - N/A   Clear
9:35 PM 54.5 °F 53.1 °F 95% 30.05 in 10.0 mi Calm Calm - N/A   Clear
9:55 PM 54.1 °F 52.9 °F 95% 30.05 in 10.0 mi Calm Calm - N/A   Clear
10:15 PM 53.4 °F 52.0 °F 95% 30.06 in 10.0 mi Calm Calm - N/A   Clear
10:35 PM 52.7 °F 51.6 °F 96% 30.06 in 10.0 mi Calm Calm - N/A   Clear
10:55 PM 52.5 °F 51.3 °F 95% 30.06 in 7.0 mi Calm Calm - N/A   Clear
11:15 PM 52.2 °F 50.9 °F 95% 30.05 in 10.0 mi Calm Calm - N/A   Clear
11:35 PM 51.8 °F 50.5 °F 95% 30.05 in 10.0 mi Calm Calm - N/A   Clear
11:55 PM 51.4 °F 50.2 °F 95% 30.05 in 10.0 mi Calm Calm - N/A   Clear